Česky Dansk Deutsch English Español Suomi Français Magyar Italiano Nederlands norsk Polski Português svenska Türkçe

 

Het Weer

Berbera (Somalia)

09:00, 15 april 2010 (GMT)

NWNNE
WE
SWSSE
Home            
Berbera Burao Hargeisa Djibouti \ Ambouli Djibouti Aden Jiggiga Mokha Dire Dawa Mokha Taiz Assab Kabre Dare Military Ataq Hodeidah Awash Marib Sana'A Combolcha Gode Ghinnir / Ginir Belet Uen Al-Hazm

Om een weerknop op uw website of weblog te plaatsen, copieer onderstaande code en plak die in uw pagina. In het eerste vakje staat HTML-code, in het tweede vakje UBB-code.


Add to Google

Details

Wind speed:3 bf, 10 kn, 5.1 m/s, 11.5 miles/h, 18.5 km/h
Wind direction:SE, 140°
Visibility:Greater than 10000 m, 10 km, 32800 ft, 6.2 miles
Clouds:Durchbrochene Bewölkung at 3000 ft, 914 m
Temperature:29°C, 84°F
Gefühlte Temperatur:29°C, 85°F
Dew-point:17°C, 63°F
Atmospheric pressure:1021 hPa, 765.8 mmHg, 30.15 inHg, 1.008 atm
Relative humidity:48.4 %
METAR:HCMI 150900Z 14010KT 9999 BKN030 29/17 Q1021

Snelkoppelingen

Actuele weersinformatie van de hele wereld. Voeg locaties toe met het plus (+) symbool. Deze snelkoppelingen kunnen worden toegevoegd aan Google.

Lid van de Technetium groep

website free tracking
StatCounter NetStat W3C Validator

14-04-2021 11:05:13
astro.technetium.be money.technetium.be phote.technetium.be tafeltennistafel.technetium.be www.ligfiets.net